EZY91QH EGPH-EGKK
Flight info
| Callsign | EZY91QH |
|---|---|
| Flight time | N/A |
| Altitude | 35000 |
| Route | GOSAM P600 FENIK L612 NAVSO DCT ADZOP DCT EGTOC DCT KEPAD L151 DISIT |
| Aircraft | A319/M-SDE2E3FGIJ1RWXYZ/LB1 |
Departure
| Time | 2026-05-04 17:43 |
|---|---|
| Airport | Edinburgh Airport (EGPH) |
Arrival
| Time | N/A |
|---|---|
| Airport | London Gatwick Airport (EGKK) |
| Time | Latitude | Longitude | Altitude | Speed | Heading |
|---|---|---|---|---|---|
| 2026-05-04 17:14 | 55.94702 | -3.36860 | 114 ft | 0 kts | 269° |
| 2026-05-04 17:28 | 55.94703 | -3.36850 | 113 ft | 4 kts | 269° |
| 2026-05-04 17:29 | 55.94687 | -3.36736 | 114 ft | 4 kts | 354° |
| 2026-05-04 17:29 | 55.94663 | -3.36735 | 116 ft | 0 kts | 359° |
| 2026-05-04 17:31 | 55.94706 | -3.36737 | 113 ft | 7 kts | 359° |
| 2026-05-04 17:32 | 55.94807 | -3.36779 | 116 ft | 8 kts | 0° |
| 2026-05-04 17:33 | 55.94945 | -3.36823 | 113 ft | 6 kts | 22° |
| 2026-05-04 17:33 | 55.94973 | -3.36761 | 115 ft | 7 kts | 57° |
| 2026-05-04 17:34 | 55.95085 | -3.36426 | 113 ft | 12 kts | 59° |
| 2026-05-04 17:34 | 55.95129 | -3.36293 | 116 ft | 13 kts | 59° |
| 2026-05-04 17:35 | 55.95268 | -3.35884 | 114 ft | 13 kts | 63° |
| 2026-05-04 17:35 | 55.95359 | -3.35608 | 116 ft | 13 kts | 64° |
| 2026-05-04 17:35 | 55.95405 | -3.35470 | 115 ft | 13 kts | 59° |
| 2026-05-04 17:36 | 55.95477 | -3.35420 | 116 ft | 12 kts | 330° |
| 2026-05-04 17:36 | 55.95517 | -3.35461 | 115 ft | 0 kts | 329° |
| 2026-05-04 17:38 | 55.95518 | -3.35462 | 115 ft | 0 kts | 329° |
| 2026-05-04 17:40 | 55.95527 | -3.35471 | 114 ft | 4 kts | 328° |
| 2026-05-04 17:41 | 55.95566 | -3.35529 | 113 ft | 9 kts | 300° |
| 2026-05-04 17:41 | 55.95552 | -3.35623 | 112 ft | 2 kts | 238° |
| 2026-05-04 17:42 | 55.95550 | -3.35629 | 112 ft | 3 kts | 239° |
| 2026-05-04 17:42 | 55.95413 | -3.36031 | 111 ft | 77 kts | 239° |
| 2026-05-04 17:42 | 55.95017 | -3.37203 | 112 ft | 140 kts | 239° |
| 2026-05-04 17:43 | 55.94498 | -3.38787 | 578 ft | 150 kts | 241° |
| 2026-05-04 17:43 | 55.93953 | -3.40406 | 1295 ft | 155 kts | 242° |
| 2026-05-04 17:43 | 55.93341 | -3.42181 | 1747 ft | 180 kts | 242° |
| 2026-05-04 17:43 | 55.92634 | -3.44213 | 2182 ft | 205 kts | 241° |
| 2026-05-04 17:44 | 55.91836 | -3.46507 | 2713 ft | 230 kts | 242° |
| 2026-05-04 17:44 | 55.91262 | -3.48161 | 3122 ft | 243 kts | 241° |
| 2026-05-04 17:44 | 55.90487 | -3.50876 | 3964 ft | 249 kts | 257° |
| 2026-05-04 17:44 | 55.90137 | -3.53920 | 4917 ft | 254 kts | 262° |
| 2026-05-04 17:45 | 55.89822 | -3.57045 | 5852 ft | 258 kts | 262° |
| 2026-05-04 17:45 | 55.89506 | -3.60246 | 6861 ft | 259 kts | 262° |
| 2026-05-04 17:45 | 55.89198 | -3.63385 | 7757 ft | 263 kts | 261° |
| 2026-05-04 17:45 | 55.88878 | -3.66606 | 8682 ft | 265 kts | 261° |
| 2026-05-04 17:46 | 55.88546 | -3.69907 | 9607 ft | 269 kts | 261° |
| 2026-05-04 17:46 | 55.88215 | -3.73217 | 10311 ft | 279 kts | 261° |
| 2026-05-04 17:46 | 55.87860 | -3.76762 | 10624 ft | 301 kts | 261° |
| 2026-05-04 17:46 | 55.87440 | -3.80484 | 11236 ft | 311 kts | 255° |
| 2026-05-04 17:47 | 55.86441 | -3.83939 | 11961 ft | 321 kts | 233° |
| 2026-05-04 17:47 | 55.84733 | -3.86491 | 12704 ft | 332 kts | 211° |
| 2026-05-04 17:47 | 55.82487 | -3.87645 | 13465 ft | 345 kts | 186° |
| 2026-05-04 17:47 | 55.80062 | -3.87524 | 14187 ft | 351 kts | 180° |
| 2026-05-04 17:48 | 55.77607 | -3.87259 | 14871 ft | 355 kts | 180° |
| 2026-05-04 17:48 | 55.75135 | -3.86968 | 15551 ft | 358 kts | 180° |
| 2026-05-04 17:48 | 55.72632 | -3.86666 | 16221 ft | 362 kts | 180° |
| 2026-05-04 17:48 | 55.70102 | -3.86370 | 16872 ft | 366 kts | 180° |
| 2026-05-04 17:49 | 55.67545 | -3.86086 | 17512 ft | 370 kts | 180° |
| 2026-05-04 17:49 | 55.64925 | -3.85809 | 18172 ft | 375 kts | 180° |
| 2026-05-04 17:49 | 55.62308 | -3.85539 | 18752 ft | 378 kts | 180° |
| 2026-05-04 17:49 | 55.59670 | -3.85266 | 19336 ft | 381 kts | 180° |
| 2026-05-04 17:50 | 55.57054 | -3.84993 | 19929 ft | 383 kts | 180° |
| 2026-05-04 17:50 | 55.54383 | -3.84714 | 20537 ft | 386 kts | 180° |
| 2026-05-04 17:50 | 55.51659 | -3.84428 | 21148 ft | 388 kts | 180° |
| 2026-05-04 17:50 | 55.48995 | -3.84146 | 21745 ft | 390 kts | 180° |
| 2026-05-04 17:51 | 55.46238 | -3.83855 | 22327 ft | 393 kts | 180° |
| 2026-05-04 17:51 | 55.43503 | -3.83564 | 22913 ft | 395 kts | 179° |
| 2026-05-04 17:51 | 55.40788 | -3.83275 | 23490 ft | 398 kts | 179° |
| 2026-05-04 17:51 | 55.37978 | -3.82977 | 23994 ft | 400 kts | 179° |
| 2026-05-04 17:52 | 55.35189 | -3.82687 | 24463 ft | 403 kts | 179° |
| 2026-05-04 17:52 | 55.32381 | -3.82397 | 24905 ft | 406 kts | 180° |
| 2026-05-04 17:52 | 55.29555 | -3.82107 | 25345 ft | 408 kts | 180° |
| 2026-05-04 17:52 | 55.26710 | -3.81812 | 25767 ft | 411 kts | 179° |
| 2026-05-04 17:53 | 55.23847 | -3.81495 | 26185 ft | 414 kts | 178° |
| 2026-05-04 17:53 | 55.21026 | -3.80641 | 26591 ft | 420 kts | 168° |
| 2026-05-04 17:53 | 55.18181 | -3.79115 | 27000 ft | 424 kts | 165° |
| 2026-05-04 17:53 | 55.15361 | -3.77560 | 27413 ft | 426 kts | 165° |
| 2026-05-04 17:54 | 55.12564 | -3.76021 | 27808 ft | 428 kts | 165° |
| 2026-05-04 17:54 | 55.09712 | -3.74454 | 28211 ft | 431 kts | 165° |
| 2026-05-04 17:54 | 55.06845 | -3.72883 | 28610 ft | 434 kts | 165° |
| 2026-05-04 17:54 | 55.03956 | -3.71304 | 28996 ft | 437 kts | 165° |
| 2026-05-04 17:55 | 55.01049 | -3.69718 | 29384 ft | 439 kts | 165° |
| 2026-05-04 17:55 | 54.98123 | -3.68124 | 29762 ft | 442 kts | 165° |
| 2026-05-04 17:55 | 54.95181 | -3.66525 | 30111 ft | 444 kts | 165° |
| 2026-05-04 17:55 | 54.92215 | -3.64921 | 30421 ft | 447 kts | 164° |
| 2026-05-04 17:56 | 54.89238 | -3.63314 | 30731 ft | 449 kts | 164° |
| 2026-05-04 17:56 | 54.86253 | -3.61702 | 31050 ft | 451 kts | 164° |
| 2026-05-04 17:56 | 54.83253 | -3.60078 | 31361 ft | 453 kts | 164° |
| 2026-05-04 17:56 | 54.80242 | -3.58446 | 31681 ft | 454 kts | 164° |
| 2026-05-04 17:57 | 54.77227 | -3.56822 | 32125 ft | 452 kts | 164° |
| 2026-05-04 17:57 | 54.74232 | -3.55216 | 32567 ft | 451 kts | 164° |
| 2026-05-04 17:57 | 54.71242 | -3.53614 | 33004 ft | 449 kts | 164° |
| 2026-05-04 17:57 | 54.68261 | -3.52016 | 33410 ft | 449 kts | 164° |
| 2026-05-04 17:58 | 54.65270 | -3.50415 | 33751 ft | 450 kts | 164° |
| 2026-05-04 17:58 | 54.62288 | -3.48819 | 34185 ft | 448 kts | 164° |
| 2026-05-04 17:58 | 54.59312 | -3.47229 | 34536 ft | 448 kts | 163° |
| 2026-05-04 17:58 | 54.56345 | -3.45652 | 34848 ft | 446 kts | 163° |
| 2026-05-04 17:59 | 54.53375 | -3.44088 | 35044 ft | 445 kts | 164° |
| 2026-05-04 17:59 | 54.50444 | -3.42538 | 35054 ft | 438 kts | 164° |
| 2026-05-04 18:00 | 54.41789 | -3.37898 | 35057 ft | 436 kts | 161° |
| 2026-05-04 18:00 | 54.36047 | -3.34569 | 35057 ft | 436 kts | 161° |
| 2026-05-04 18:01 | 54.30332 | -3.31176 | 35059 ft | 435 kts | 161° |